Time;durP1;ratioP1;P1;durP2;ratioP2;P2;SDS_P1;SDS_P2;PMS_P1;PMS_P2;Temp;Humidity;BMP_temperature;BMP_pressure;BME280_temperature;BME280_humidity;BME280_pressure;Samples;Min_cycle;Max_cycle;Signal;HPM_P1;HPM_P2
2023/12/15 00:01:08;;;;;;;11.45;7.78;;;6.70;99.90;;;;;;5076037;28;20032;-65
2023/12/15 00:03:34;;;;;;;10.65;7.95;;;6.70;99.90;;;;;;5057743;28;20574;-65
2023/12/15 00:06:00;;;;;;;11.50;8.57;;;6.70;99.90;;;;;;5057495;28;20052;-65
2023/12/15 00:08:26;;;;;;;12.93;8.55;;;6.70;99.90;;;;;;5075558;28;20090;-65
2023/12/15 00:10:51;;;;;;;10.50;8.07;;;6.60;99.90;;;;;;5074918;28;20036;-65
2023/12/15 00:13:17;;;;;;;10.40;7.40;;;6.60;99.90;;;;;;5057545;28;20024;-65
2023/12/15 00:15:42;;;;;;;9.23;7.00;;;6.60;99.90;;;;;;5075182;28;20020;-65
2023/12/15 00:18:08;;;;;;;9.15;6.40;;;6.60;99.90;;;;;;5075669;28;20032;-65
2023/12/15 00:20:34;;;;;;;8.40;5.57;;;6.60;99.90;;;;;;5075273;28;20021;-65
2023/12/15 00:22:59;;;;;;;5.40;4.50;;;6.60;99.90;;;;;;5057860;28;20462;-65
2023/12/15 00:25:25;;;;;;;5.90;4.72;;;6.50;99.90;;;;;;5075476;28;20462;-65
2023/12/15 00:27:51;;;;;;;4.75;3.75;;;6.60;99.90;;;;;;5057206;28;20036;-65
2023/12/15 00:30:16;;;;;;;6.43;4.70;;;6.50;99.90;;;;;;5075342;28;20033;-65
2023/12/15 00:32:42;;;;;;;7.47;4.03;;;6.50;99.90;;;;;;5075058;28;20028;-65
2023/12/15 00:35:08;;;;;;;4.75;3.80;;;6.50;99.90;;;;;;5075602;28;20103;-65
2023/12/15 00:37:34;;;;;;;4.40;3.50;;;6.50;99.90;;;;;;5057042;28;20098;-65
2023/12/15 00:39:59;;;;;;;5.55;4.03;;;6.50;99.90;;;;;;5056946;28;20020;-65
2023/12/15 00:42:25;;;;;;;4.63;3.42;;;6.50;99.90;;;;;;5074562;28;20095;-65
2023/12/15 00:44:51;;;;;;;6.00;3.35;;;6.50;99.90;;;;;;5056543;28;20027;-65
2023/12/15 00:47:17;;;;;;;3.33;3.00;;;6.50;99.90;;;;;;5056809;28;20032;-64
2023/12/15 00:49:43;;;;;;;3.47;2.80;;;6.50;99.90;;;;;;5074669;28;20094;-64
2023/12/15 00:52:09;;;;;;;2.65;2.30;;;6.50;99.90;;;;;;5074692;28;20368;-64
2023/12/15 00:54:34;;;;;;;6.18;2.20;;;6.50;99.90;;;;;;5056929;28;20020;-64
2023/12/15 00:57:00;;;;;;;1.92;1.73;;;6.40;99.90;;;;;;5074847;28;20506;-64
2023/12/15 00:59:26;;;;;;;2.53;1.80;;;6.40;99.90;;;;;;5074453;28;20476;-64
2023/12/15 01:01:52;;;;;;;1.52;1.42;;;6.40;99.90;;;;;;5056548;28;20124;-63
2023/12/15 01:04:18;;;;;;;1.92;1.70;;;6.40;99.90;;;;;;5056773;28;20517;-64
2023/12/15 01:06:44;;;;;;;2.25;1.70;;;6.40;99.90;;;;;;5074574;28;20072;-63
2023/12/15 01:09:09;;;;;;;2.15;1.35;;;6.40;99.90;;;;;;5074221;28;20037;-63
2023/12/15 01:11:35;;;;;;;2.47;1.50;;;6.40;99.90;;;;;;5074535;28;20374;-63
2023/12/15 01:14:01;;;;;;;1.60;1.42;;;6.40;99.90;;;;;;5056367;28;20492;-63
2023/12/15 01:16:26;;;;;;;1.35;1.25;;;6.40;99.90;;;;;;5074251;28;20024;-63
2023/12/15 01:18:52;;;;;;;1.88;1.30;;;6.30;99.90;;;;;;5074172;28;20142;-64
2023/12/15 01:21:18;;;;;;;1.70;1.48;;;6.30;99.90;;;;;;5056525;28;20043;-63
2023/12/15 01:23:43;;;;;;;1.77;1.30;;;6.30;99.90;;;;;;5073904;28;20028;-64
2023/12/15 01:26:09;;;;;;;1.30;1.20;;;6.40;99.90;;;;;;5073841;28;20082;-64
2023/12/15 01:28:35;;;;;;;2.10;1.70;;;6.30;99.90;;;;;;5056082;28;20043;-63
2023/12/15 01:31:01;;;;;;;1.35;1.20;;;6.30;99.90;;;;;;5056160;28;20032;-63
2023/12/15 01:33:27;;;;;;;1.45;1.23;;;6.30;99.90;;;;;;5074230;28;20502;-64
2023/12/15 01:35:53;;;;;;;2.22;1.50;;;6.30;99.90;;;;;;5073997;28;20029;-64
2023/12/15 01:38:19;;;;;;;1.90;1.80;;;6.30;99.90;;;;;;5074008;28;20098;-63
2023/12/15 01:40:45;;;;;;;2.33;1.95;;;6.30;99.90;;;;;;5073969;28;20469;-64
2023/12/15 01:43:10;;;;;;;2.28;1.90;;;6.30;99.90;;;;;;5074308;28;20029;-64
2023/12/15 01:45:36;;;;;;;2.20;2.00;;;6.30;99.90;;;;;;5055938;28;20457;-65
2023/12/15 01:48:02;;;;;;;4.10;2.70;;;6.30;99.90;;;;;;5074977;28;20029;-66
2023/12/15 01:50:28;;;;;;;3.05;2.25;;;6.20;99.90;;;;;;5074749;28;20059;-66
2023/12/15 01:52:53;;;;;;;3.40;2.50;;;6.20;99.90;;;;;;5056962;28;20025;-65
2023/12/15 01:55:19;;;;;;;4.43;3.03;;;6.20;99.90;;;;;;5055946;28;20025;-65
2023/12/15 01:57:44;;;;;;;5.10;2.72;;;6.20;99.90;;;;;;5074011;28;20036;-69
2023/12/15 02:00:10;;;;;;;3.55;3.00;;;6.20;99.90;;;;;;5073971;28;20035;-66
2023/12/15 02:02:36;;;;;;;3.22;2.83;;;6.10;99.90;;;;;;5055970;28;20385;-65
2023/12/15 02:05:02;;;;;;;3.92;2.95;;;6.10;99.90;;;;;;5056185;28;20028;-66
2023/12/15 02:07:28;;;;;;;4.60;3.55;;;6.10;99.90;;;;;;5056194;28;20029;-65
2023/12/15 02:09:55;;;;;;;5.25;3.17;;;6.10;99.90;;;;;;5073794;28;20450;-65
2023/12/15 02:12:20;;;;;;;5.78;3.58;;;6.00;99.90;;;;;;5073788;28;20056;-65
2023/12/15 02:14:46;;;;;;;6.95;3.88;;;6.00;99.90;;;;;;5073586;28;20052;-65
2023/12/15 02:17:12;;;;;;;4.70;3.60;;;6.00;99.90;;;;;;5055601;28;20025;-65
2023/12/15 02:19:38;;;;;;;5.43;3.25;;;6.00;99.90;;;;;;5073745;28;20381;-66
2023/12/15 02:22:04;;;;;;;4.38;3.95;;;6.00;99.90;;;;;;5073785;28;20020;-65
2023/12/15 02:24:30;;;;;;;6.47;3.63;;;6.00;99.90;;;;;;5073442;28;20033;-65
2023/12/15 02:26:56;;;;;;;6.90;4.43;;;6.00;99.90;;;;;;5055843;28;20031;-65
2023/12/15 02:29:22;;;;;;;5.10;3.90;;;6.00;99.90;;;;;;5054986;28;20033;-65
2023/12/15 02:31:48;;;;;;;4.93;4.40;;;6.00;99.90;;;;;;5073384;28;20108;-65
2023/12/15 02:34:13;;;;;;;5.13;3.63;;;6.00;99.90;;;;;;5055845;28;20036;-65
2023/12/15 02:36:39;;;;;;;4.88;4.00;;;6.00;99.90;;;;;;5077503;28;20024;-65
2023/12/15 02:39:05;;;;;;;6.85;4.75;;;6.00;99.90;;;;;;5076948;28;20032;-65
2023/12/15 02:41:31;;;;;;;5.05;3.85;;;6.00;99.90;;;;;;5076912;28;20389;-65
2023/12/15 02:43:57;;;;;;;8.88;3.88;;;6.00;99.90;;;;;;5077287;28;20369;-65
2023/12/15 02:46:22;;;;;;;5.97;3.95;;;6.00;99.90;;;;;;5059088;28;20021;-65
2023/12/15 02:48:48;;;;;;;4.60;3.50;;;6.00;99.90;;;;;;5059091;28;20039;-65
2023/12/15 02:51:26;;;;;;;4.85;4.07;;;5.90;99.90;;;;;;5077063;28;20420;-66
2023/12/15 02:53:51;;;;;;;4.25;3.40;;;5.90;99.90;;;;;;5076997;28;20094;-65
2023/12/15 02:56:17;;;;;;;3.65;2.88;;;5.90;99.90;;;;;;5059045;28;20483;-65
2023/12/15 02:58:43;;;;;;;4.65;3.13;;;5.90;99.90;;;;;;5058978;28;20028;-65
2023/12/15 03:01:08;;;;;;;4.55;3.13;;;5.90;99.90;;;;;;5076914;28;20109;-65
2023/12/15 03:03:34;;;;;;;3.03;2.47;;;5.80;99.90;;;;;;5058968;28;20028;-65
2023/12/15 03:05:59;;;;;;;4.68;2.63;;;5.80;99.90;;;;;;5058971;28;20405;-65
2023/12/15 03:08:27;;;;;;;2.60;2.40;;;5.80;99.90;;;;;;5059216;28;20466;-65
2023/12/15 03:10:57;;;;;;;2.80;2.50;;;5.80;99.90;;;;;;5076595;28;20048;-65
2023/12/15 03:13:26;;;;;;;3.38;2.33;;;5.70;99.90;;;;;;5078234;28;20103;-74
2023/12/15 03:15:52;;;;;;;4.15;2.60;;;5.70;99.90;;;;;;5061688;28;20049;-68
2023/12/15 03:18:17;;;;;;;3.70;2.05;;;5.70;99.90;;;;;;5060321;28;20044;-65
2023/12/15 03:20:46;;;;;;;2.05;1.73;;;5.70;99.90;;;;;;5060096;28;20021;-66
2023/12/15 03:23:12;;;;;;;2.90;2.03;;;5.60;99.90;;;;;;5077393;28;20028;-69
2023/12/15 03:25:37;;;;;;;2.70;1.60;;;5.60;99.90;;;;;;5077051;28;20047;-64
2023/12/15 03:28:03;;;;;;;2.60;1.55;;;5.60;99.90;;;;;;5076161;28;20033;-64
2023/12/15 03:30:29;;;;;;;2.22;1.63;;;5.60;99.90;;;;;;5076122;28;20028;-64
2023/12/15 03:32:54;;;;;;;1.85;1.40;;;5.60;99.90;;;;;;5076037;28;20074;-64
2023/12/15 03:35:20;;;;;;;1.63;1.48;;;5.60;99.90;;;;;;5058345;28;20029;-64
2023/12/15 03:37:45;;;;;;;2.25;1.52;;;5.60;99.90;;;;;;5076276;28;20473;-69
2023/12/15 03:40:12;;;;;;;1.80;1.35;;;5.50;99.90;;;;;;5076846;28;20028;-64
2023/12/15 03:42:38;;;;;;;2.97;1.83;;;5.50;99.90;;;;;;5076792;28;20068;-64
2023/12/15 03:45:04;;;;;;;1.40;1.30;;;5.50;99.90;;;;;;5058701;28;20032;-63
2023/12/15 03:47:31;;;;;;;2.75;1.70;;;5.50;99.90;;;;;;5076714;28;20025;-64
2023/12/15 03:49:57;;;;;;;1.63;1.48;;;5.50;99.90;;;;;;5076735;28;20040;-64
2023/12/15 03:52:22;;;;;;;1.00;1.00;;;5.50;99.90;;;;;;5058356;28;20036;-64
2023/12/15 03:54:49;;;;;;;1.77;1.50;;;5.40;99.90;;;;;;5058832;28;20036;-64
2023/12/15 03:57:14;;;;;;;1.40;1.30;;;5.50;99.90;;;;;;5076268;28;20361;-64
2023/12/15 03:59:40;;;;;;;1.58;1.30;;;5.40;99.90;;;;;;5057987;28;20035;-63
2023/12/15 04:02:09;;;;;;;2.28;1.55;;;5.40;99.90;;;;;;5075582;28;20099;-63
2023/12/15 04:04:34;;;;;;;2.08;1.30;;;5.40;99.90;;;;;;5057688;28;20020;-63
2023/12/15 04:07:00;;;;;;;2.35;1.35;;;5.40;99.90;;;;;;5057574;28;20057;-63
2023/12/15 04:09:26;;;;;;;1.88;1.48;;;5.40;99.90;;;;;;5075500;28;20517;-63
2023/12/15 04:11:51;;;;;;;1.73;1.63;;;5.30;99.90;;;;;;5075310;28;20062;-63
2023/12/15 04:14:18;;;;;;;1.92;1.65;;;5.30;99.90;;;;;;5057488;28;20035;-63
2023/12/15 04:16:43;;;;;;;2.67;1.90;;;5.30;99.90;;;;;;5075418;28;20074;-63
2023/12/15 04:19:09;;;;;;;2.50;1.83;;;5.30;99.90;;;;;;5057487;28;20024;-63
2023/12/15 04:21:35;;;;;;;2.00;1.80;;;5.30;99.90;;;;;;5075126;28;20086;-63
2023/12/15 04:24:00;;;;;;;1.52;1.40;;;5.30;99.90;;;;;;5075253;28;20038;-63
2023/12/15 04:26:26;;;;;;;2.90;2.40;;;5.30;99.90;;;;;;5057538;28;20119;-63
2023/12/15 04:28:53;;;;;;;3.03;2.30;;;5.30;99.90;;;;;;5057175;28;20038;-63
2023/12/15 04:31:18;;;;;;;2.38;2.10;;;5.30;99.90;;;;;;5057078;28;20033;-62
2023/12/15 04:33:44;;;;;;;3.28;2.50;;;5.30;99.90;;;;;;5074784;28;20081;-63
2023/12/15 04:36:11;;;;;;;3.15;2.20;;;5.30;99.90;;;;;;5075195;28;20027;-63
2023/12/15 04:38:36;;;;;;;2.67;2.40;;;5.20;99.90;;;;;;5057057;28;20526;-63
2023/12/15 04:41:03;;;;;;;3.60;2.78;;;5.20;99.90;;;;;;5074917;28;20020;-63
2023/12/15 04:43:28;;;;;;;4.03;2.63;;;5.20;99.90;;;;;;5074900;28;20037;-63
2023/12/15 04:45:55;;;;;;;4.78;2.90;;;5.20;99.90;;;;;;5056930;28;20027;-63
2023/12/15 04:48:21;;;;;;;4.25;3.42;;;5.20;99.90;;;;;;5056485;28;20119;-63
2023/12/15 04:50:47;;;;;;;4.78;2.90;;;5.20;99.90;;;;;;5074663;28;20355;-63
2023/12/15 04:53:13;;;;;;;4.90;3.15;;;5.20;99.90;;;;;;5074619;28;20027;-63
2023/12/15 04:55:39;;;;;;;4.70;3.13;;;5.30;99.90;;;;;;5056654;28;20024;-63
2023/12/15 04:58:05;;;;;;;3.40;2.90;;;5.20;99.90;;;;;;5056473;28;20111;-63
2023/12/15 05:00:31;;;;;;;4.28;3.22;;;5.30;99.90;;;;;;5074657;28;20131;-63
2023/12/15 05:02:57;;;;;;;5.00;3.28;;;5.30;99.90;;;;;;5074523;28;20444;-63
2023/12/15 05:05:22;;;;;;;4.22;2.97;;;5.20;99.90;;;;;;5074304;28;20094;-63
2023/12/15 05:07:48;;;;;;;4.03;2.90;;;5.30;99.90;;;;;;5076135;28;20083;-63
2023/12/15 05:10:14;;;;;;;4.00;3.22;;;5.20;99.90;;;;;;5076005;28;20060;-63
2023/12/15 05:12:40;;;;;;;5.13;3.42;;;5.20;99.90;;;;;;5075151;28;20032;-63
2023/12/15 05:15:06;;;;;;;4.20;3.00;;;5.20;99.90;;;;;;5075107;28;20020;-63
2023/12/15 05:17:32;;;;;;;5.90;3.17;;;5.20;99.90;;;;;;5074390;28;20032;-60
2023/12/15 05:19:58;;;;;;;4.32;3.42;;;5.20;99.90;;;;;;5074172;28;20115;-62
2023/12/15 05:22:24;;;;;;;5.18;3.42;;;5.30;99.90;;;;;;5056268;28;20082;-62
2023/12/15 05:24:51;;;;;;;5.38;4.00;;;5.30;99.90;;;;;;5074446;28;20138;-61
2023/12/15 05:27:17;;;;;;;4.70;3.40;;;5.30;99.90;;;;;;5056186;28;20056;-61
2023/12/15 05:29:46;;;;;;;6.60;3.88;;;5.30;99.90;;;;;;5073961;28;20028;-61
2023/12/15 05:32:13;;;;;;;4.60;3.53;;;5.20;99.90;;;;;;5074402;28;20120;-62
2023/12/15 05:34:38;;;;;;;5.25;3.60;;;5.20;99.90;;;;;;5074014;28;20033;-61
2023/12/15 05:37:04;;;;;;;5.70;4.07;;;5.20;99.90;;;;;;5074244;28;20115;-62
2023/12/15 05:39:30;;;;;;;6.65;4.28;;;5.20;99.90;;;;;;5057272;28;20381;-63
2023/12/15 05:41:56;;;;;;;6.88;4.22;;;5.20;99.90;;;;;;5060161;28;20028;-62
2023/12/15 05:44:21;;;;;;;5.90;3.95;;;5.20;99.90;;;;;;5073841;28;20021;-61
2023/12/15 05:46:47;;;;;;;5.13;4.25;;;5.20;99.90;;;;;;5055911;28;20028;-62
2023/12/15 05:49:13;;;;;;;6.53;4.43;;;5.20;99.90;;;;;;5073758;28;20424;-61
2023/12/15 05:51:38;;;;;;;7.60;4.68;;;5.10;99.90;;;;;;5073714;28;20032;-61
2023/12/15 05:54:04;;;;;;;6.95;4.70;;;5.10;99.90;;;;;;5073796;28;20032;-61
2023/12/15 05:56:30;;;;;;;6.22;4.50;;;5.10;99.90;;;;;;5083108;28;20028;-61
2023/12/15 05:58:56;;;;;;;5.95;4.65;;;5.10;99.90;;;;;;5094247;28;20035;-61
2023/12/15 06:01:22;;;;;;;7.22;4.82;;;5.10;99.90;;;;;;5088474;28;20503;-61
2023/12/15 06:03:48;;;;;;;7.15;4.53;;;5.10;99.90;;;;;;5055423;28;20029;-61
2023/12/15 06:06:13;;;;;;;6.63;4.50;;;5.10;99.90;;;;;;5073327;28;20052;-62
2023/12/15 06:08:39;;;;;;;8.25;5.32;;;5.10;99.90;;;;;;5093886;28;20081;-61
2023/12/15 06:11:05;;;;;;;7.57;4.88;;;5.20;99.90;;;;;;5084347;28;20036;-61
2023/12/15 06:13:30;;;;;;;6.47;4.70;;;5.20;99.90;;;;;;5086179;28;20141;-61
2023/12/15 06:15:56;;;;;;;8.25;4.90;;;5.20;99.90;;;;;;5079775;28;20020;-61
2023/12/15 06:18:22;;;;;;;9.60;5.97;;;5.10;99.90;;;;;;5080350;28;20024;-62
2023/12/15 06:20:53;;;;;;;7.97;5.15;;;5.10;99.90;;;;;;5079835;28;20498;-61
2023/12/15 06:23:19;;;;;;;9.75;6.18;;;5.10;99.90;;;;;;5098146;28;20032;-61
2023/12/15 06:25:45;;;;;;;9.80;5.22;;;5.10;99.90;;;;;;5097764;28;20073;-61
2023/12/15 06:28:10;;;;;;;8.55;5.15;;;5.10;99.90;;;;;;5097676;28;20028;-62
2023/12/15 06:30:38;;;;;;;9.75;5.53;;;5.20;99.90;;;;;;5097423;28;20028;-62
2023/12/15 06:33:07;;;;;;;7.63;5.25;;;5.20;99.90;;;;;;5097470;28;20020;-61
2023/12/15 06:35:33;;;;;;;8.70;5.57;;;5.10;99.90;;;;;;5097658;28;20376;-62
2023/12/15 06:37:59;;;;;;;9.05;5.93;;;5.10;99.90;;;;;;5097597;28;20039;-61
2023/12/15 06:40:25;;;;;;;15.13;6.40;;;5.10;99.90;;;;;;5079644;28;20035;-61
2023/12/15 06:42:50;;;;;;;9.50;6.53;;;5.10;99.90;;;;;;5079583;28;20028;-61
2023/12/15 06:45:16;;;;;;;11.23;6.07;;;5.10;99.90;;;;;;5097795;28;20476;-62
2023/12/15 06:47:42;;;;;;;9.63;6.20;;;5.10;99.90;;;;;;5079874;28;20024;-62
2023/12/15 06:50:08;;;;;;;9.07;6.38;;;5.10;99.90;;;;;;5097530;28;20230;-61
2023/12/15 06:52:35;;;;;;;6.63;4.70;;;5.10;99.90;;;;;;5097314;28;20524;-61
2023/12/15 06:55:01;;;;;;;6.88;4.75;;;4.90;99.90;;;;;;5079127;28;20032;-63
2023/12/15 06:57:27;;;;;;;9.48;5.70;;;4.80;99.90;;;;;;5097546;28;20458;-61
2023/12/15 06:59:53;;;;;;;12.82;6.13;;;4.60;99.90;;;;;;5096973;28;20107;-61
2023/12/15 07:02:18;;;;;;;10.45;6.43;;;4.60;99.90;;;;;;5097051;28;20024;-62
2023/12/15 07:04:44;;;;;;;10.05;5.88;;;4.50;99.90;;;;;;5078829;28;20028;-62
2023/12/15 07:07:10;;;;;;;9.10;5.88;;;4.40;99.90;;;;;;5096677;28;20051;-61
2023/12/15 07:09:36;;;;;;;8.82;5.82;;;4.30;99.90;;;;;;5096568;28;20173;-61
2023/12/15 07:12:02;;;;;;;10.50;6.20;;;4.30;99.90;;;;;;5078691;28;20028;-61
2023/12/15 07:14:31;;;;;;;10.70;6.15;;;4.20;99.90;;;;;;5096593;28;20032;-61
2023/12/15 07:16:57;;;;;;;10.02;6.60;;;4.20;99.90;;;;;;5096859;28;20035;-61
2023/12/15 07:19:22;;;;;;;10.23;5.97;;;4.10;99.90;;;;;;5096298;28;20032;-61
2023/12/15 07:21:48;;;;;;;11.40;6.75;;;4.10;99.90;;;;;;5096520;28;20020;-62
2023/12/15 07:24:13;;;;;;;11.15;6.53;;;4.10;99.90;;;;;;5096729;28;20024;-62
2023/12/15 07:26:39;;;;;;;16.88;6.47;;;4.10;99.90;;;;;;5096911;28;20024;-62
2023/12/15 07:29:05;;;;;;;11.35;6.05;;;4.10;99.90;;;;;;5097877;28;20024;-61
2023/12/15 07:31:31;;;;;;;10.13;6.32;;;4.10;99.90;;;;;;5097804;28;20524;-61
2023/12/15 07:33:56;;;;;;;9.73;6.43;;;4.10;99.90;;;;;;5096894;28;20103;-61
2023/12/15 07:36:22;;;;;;;13.23;6.78;;;4.10;99.90;;;;;;5078543;28;20026;-61
2023/12/15 07:38:48;;;;;;;12.07;7.03;;;4.10;99.90;;;;;;5096407;28;20082;-61
2023/12/15 07:41:14;;;;;;;13.85;8.20;;;4.20;99.90;;;;;;5078297;28;20099;-61
2023/12/15 07:43:40;;;;;;;13.48;7.32;;;4.20;99.90;;;;;;5096564;28;20034;-61
2023/12/15 07:46:18;;;;;;;9.63;6.38;;;4.30;99.90;;;;;;5096353;28;20028;-61
2023/12/15 07:48:43;;;;;;;10.73;7.60;;;4.30;99.90;;;;;;5096524;28;20361;-62
2023/12/15 07:51:20;;;;;;;12.07;7.88;;;4.30;99.90;;;;;;5096154;28;20028;-61
2023/12/15 07:53:49;;;;;;;10.52;6.97;;;4.30;99.90;;;;;;5096177;28;20032;-61
2023/12/15 07:56:25;;;;;;;12.02;7.28;;;4.30;99.90;;;;;;5095779;28;20472;-61
2023/12/15 07:58:52;;;;;;;10.63;7.25;;;4.30;99.90;;;;;;5096176;28;20447;-62
2023/12/15 08:01:19;;;;;;;13.40;7.50;;;4.40;99.90;;;;;;5095678;28;20535;-62
2023/12/15 08:03:45;;;;;;;12.30;7.03;;;4.30;99.90;;;;;;5077813;28;20024;-62
2023/12/15 08:06:16;;;;;;;10.65;6.95;;;4.40;99.90;;;;;;5095647;28;20040;-61
2023/12/15 08:08:43;;;;;;;8.25;5.50;;;4.40;99.90;;;;;;5095860;28;20028;-61
2023/12/15 08:11:12;;;;;;;11.13;6.22;;;4.40;99.90;;;;;;5095800;28;20032;-62
2023/12/15 08:13:38;;;;;;;10.80;5.78;;;4.40;99.90;;;;;;5077620;28;20202;-62
2023/12/15 08:16:04;;;;;;;9.57;5.63;;;4.40;99.90;;;;;;5095607;28;20032;-62
2023/12/15 08:18:30;;;;;;;8.35;4.78;;;4.40;99.90;;;;;;5095481;28;20423;-61
2023/12/15 08:20:57;;;;;;;11.05;4.97;;;4.30;99.90;;;;;;5077518;28;20027;-62
2023/12/15 08:23:22;;;;;;;8.73;5.20;;;4.30;99.90;;;;;;5095727;28;20026;-61
2023/12/15 08:25:48;;;;;;;9.65;4.40;;;4.30;99.90;;;;;;5095819;28;20028;-62
2023/12/15 08:28:14;;;;;;;9.20;4.80;;;4.30;99.90;;;;;;5095685;28;20354;-61
2023/12/15 08:30:39;;;;;;;8.30;4.80;;;4.30;99.90;;;;;;5095068;28;20050;-63
2023/12/15 08:33:05;;;;;;;6.47;4.47;;;4.20;99.90;;;;;;5076431;28;20043;-62
2023/12/15 08:35:31;;;;;;;6.88;4.03;;;4.20;99.90;;;;;;5095071;28;20030;-62
2023/12/15 08:37:57;;;;;;;11.57;4.90;;;4.20;99.90;;;;;;5077148;28;20500;-62
2023/12/15 08:40:23;;;;;;;7.30;4.90;;;4.20;99.90;;;;;;5077368;28;20062;-63
2023/12/15 08:42:49;;;;;;;8.50;5.22;;;4.20;99.90;;;;;;5095193;28;20024;-63
2023/12/15 08:45:15;;;;;;;9.68;5.78;;;4.20;99.90;;;;;;5095169;28;20072;-62
2023/12/15 08:47:41;;;;;;;12.02;6.05;;;4.10;99.90;;;;;;5096791;28;20024;-63
2023/12/15 08:50:07;;;;;;;10.38;6.43;;;4.00;99.90;;;;;;5078210;28;20028;-67
2023/12/15 08:52:33;;;;;;;10.20;6.45;;;4.00;99.90;;;;;;5077563;28;20024;-62
2023/12/15 08:54:59;;;;;;;11.32;6.30;;;4.00;99.90;;;;;;5076980;28;20465;-63
2023/12/15 08:57:24;;;;;;;12.18;7.00;;;4.10;99.90;;;;;;5095264;28;20031;-62
2023/12/15 08:59:50;;;;;;;13.45;6.97;;;4.00;99.90;;;;;;5094935;28;20028;-62
2023/12/15 09:02:16;;;;;;;14.60;7.22;;;4.00;99.90;;;;;;5094891;28;20035;-62
2023/12/15 09:04:41;;;;;;;11.27;7.25;;;4.00;99.90;;;;;;5076384;28;20115;-63
2023/12/15 09:07:07;;;;;;;10.00;6.47;;;4.00;99.90;;;;;;5076145;28;20135;-62
2023/12/15 09:09:37;;;;;;;11.63;7.03;;;4.00;99.90;;;;;;5094646;28;20073;-62
2023/12/15 09:12:03;;;;;;;10.20;6.90;;;4.00;99.90;;;;;;5076356;28;20027;-62
2023/12/15 09:14:29;;;;;;;12.20;6.35;;;4.00;99.90;;;;;;5076320;28;20451;-62
2023/12/15 09:16:55;;;;;;;11.10;7.25;;;4.00;99.90;;;;;;5094592;28;20073;-62
2023/12/15 09:19:21;;;;;;;12.23;7.63;;;4.00;99.90;;;;;;5094494;28;20119;-62
2023/12/15 09:21:47;;;;;;;12.52;7.93;;;4.00;99.90;;;;;;5076504;28;20028;-62
2023/12/15 09:24:17;;;;;;;18.08;8.40;;;4.00;99.90;;;;;;5094471;28;20035;-62
2023/12/15 09:26:44;;;;;;;12.23;7.35;;;4.10;99.90;;;;;;5094401;28;20373;-61
2023/12/15 09:29:10;;;;;;;13.07;7.10;;;4.10;99.90;;;;;;5094453;28;20111;-62
2023/12/15 09:31:37;;;;;;;14.02;7.95;;;4.10;99.90;;;;;;5076359;28;20047;-62
2023/12/15 09:34:03;;;;;;;10.75;6.82;;;4.10;99.90;;;;;;5075847;28;20140;-62
2023/12/15 09:36:29;;;;;;;16.95;8.43;;;4.10;99.90;;;;;;5076262;28;20024;-62
2023/12/15 09:38:54;;;;;;;17.30;8.93;;;4.20;99.90;;;;;;5094206;28;20032;-62
2023/12/15 09:41:20;;;;;;;12.45;7.18;;;4.20;99.90;;;;;;5076022;28;20024;-61
2023/12/15 09:43:46;;;;;;;17.63;8.13;;;4.20;99.90;;;;;;5093648;28;20060;-62
2023/12/15 09:46:12;;;;;;;10.13;6.45;;;4.20;99.90;;;;;;5075925;28;20023;-61
2023/12/15 09:48:38;;;;;;;11.73;7.00;;;4.30;99.90;;;;;;5075799;28;20114;-62
2023/12/15 09:51:20;;;;;;;12.02;5.78;;;4.30;99.90;;;;;;5094065;28;20036;-61
2023/12/15 09:53:46;;;;;;;10.95;6.80;;;4.30;99.90;;;;;;5094288;28;20458;-61
2023/12/15 09:56:12;;;;;;;12.50;6.10;;;4.30;99.90;;;;;;5076053;28;20028;-61
2023/12/15 09:58:38;;;;;;;10.90;6.93;;;4.40;99.90;;;;;;5075801;28;20040;-62
2023/12/15 10:01:04;;;;;;;10.05;5.32;;;4.30;99.90;;;;;;5093895;28;20023;-61
2023/12/15 10:03:31;;;;;;;8.65;5.53;;;4.30;99.90;;;;;;5093905;28;20027;-61
2023/12/15 10:05:56;;;;;;;7.60;4.82;;;4.20;99.90;;;;;;5094041;28;20044;-62
2023/12/15 10:08:24;;;;;;;8.55;5.28;;;4.20;99.90;;;;;;5093900;28;20055;-62
2023/12/15 10:10:50;;;;;;;12.98;5.97;;;4.10;99.90;;;;;;5075400;28;20033;-61
2023/12/15 10:13:16;;;;;;;7.63;5.25;;;4.00;99.90;;;;;;5093529;28;20077;-62
2023/12/15 10:15:41;;;;;;;6.25;4.85;;;4.00;99.90;;;;;;5094087;28;20107;-61
2023/12/15 10:18:07;;;;;;;9.07;5.15;;;4.00;99.90;;;;;;5093561;28;20469;-62
2023/12/15 10:20:33;;;;;;;6.53;5.03;;;4.00;99.90;;;;;;5094112;28;20031;-61
2023/12/15 10:23:06;;;;;;;9.40;5.90;;;4.00;99.90;;;;;;5093445;28;20028;-61
2023/12/15 10:25:33;;;;;;;10.25;6.60;;;4.10;99.90;;;;;;5093646;28;20032;-61
2023/12/15 10:27:59;;;;;;;12.38;6.47;;;4.00;99.90;;;;;;5075389;28;20028;-61
2023/12/15 10:30:25;;;;;;;12.98;6.78;;;4.10;99.90;;;;;;5093666;28;20032;-61
2023/12/15 10:32:53;;;;;;;9.63;5.80;;;4.10;99.90;;;;;;5093597;28;20368;-61
2023/12/15 10:35:22;;;;;;;9.45;6.75;;;4.10;99.90;;;;;;5075190;28;20032;-61
2023/12/15 10:37:48;;;;;;;11.30;6.57;;;4.20;99.90;;;;;;5093575;28;20423;-61
2023/12/15 10:40:14;;;;;;;11.40;6.30;;;4.20;99.90;;;;;;5075356;28;20024;-62
2023/12/15 10:42:41;;;;;;;7.25;5.38;;;4.20;99.90;;;;;;5093629;28;20116;-61
2023/12/15 10:45:08;;;;;;;10.43;5.68;;;4.30;99.90;;;;;;5093501;28;20024;-61
2023/12/15 10:47:34;;;;;;;7.45;5.07;;;4.30;99.90;;;;;;5093783;28;20032;-61
2023/12/15 10:50:01;;;;;;;6.88;5.13;;;4.30;99.90;;;;;;5075195;28;20024;-61
2023/12/15 10:52:27;;;;;;;8.43;4.68;;;4.20;99.90;;;;;;5093490;28;20039;-61
2023/12/15 10:54:54;;;;;;;6.88;4.95;;;4.20;99.90;;;;;;5093784;28;20028;-61
2023/12/15 10:57:21;;;;;;;7.65;4.43;;;4.10;99.90;;;;;;5079006;28;20053;-62
2023/12/15 10:59:48;;;;;;;5.35;4.18;;;4.10;99.90;;;;;;5096904;28;20028;-62
2023/12/15 11:02:17;;;;;;;11.80;4.80;;;4.10;99.90;;;;;;5097304;28;20031;-61
2023/12/15 11:04:43;;;;;;;;;;;4.00;99.90;;;;;;5098150;28;20039;-65
2023/12/15 11:07:09;;;;;;;6.85;3.97;;;4.00;99.90;;;;;;5080525;28;19920;-64
2023/12/15 11:09:35;;;;;;;7.82;4.35;;;4.00;99.90;;;;;;5080884;28;20063;-62
2023/12/15 11:12:29;;;;;;;12.25;5.18;;;4.00;99.90;;;;;;5097482;28;20477;-61
2023/12/15 11:15:06;;;;;;;8.32;4.93;;;4.00;99.90;;;;;;5097348;28;20062;-61
2023/12/15 11:17:33;;;;;;;9.20;5.45;;;4.10;99.90;;;;;;5098588;28;20031;-64
2023/12/15 11:20:07;;;;;;;8.20;5.47;;;4.10;99.90;;;;;;5097965;28;20035;-61
2023/12/15 11:22:52;;;;;;;7.53;5.38;;;4.10;99.90;;;;;;5096576;28;20027;-62
2023/12/15 11:25:19;;;;;;;11.23;5.18;;;4.10;99.90;;;;;;5097536;28;20036;-62
2023/12/15 11:28:18;;;;;;;5.63;4.75;;;4.10;99.90;;;;;;5078707;28;20450;-61
2023/12/15 11:30:51;;;;;;;7.82;5.72;;;4.10;99.90;;;;;;5041544;28;20040;-61
2023/12/15 11:33:32;;;;;;;8.07;5.30;;;4.10;99.90;;;;;;5096745;28;20074;-62
2023/12/15 11:36:09;;;;;;;7.78;5.15;;;4.10;99.90;;;;;;5078380;28;20123;-63
2023/12/15 11:38:36;;;;;;;10.30;5.70;;;4.10;99.90;;;;;;5097385;28;20028;-61
2023/12/15 11:41:02;;;;;;;10.52;5.55;;;4.10;99.90;;;;;;5097417;28;20032;-62
2023/12/15 11:43:32;;;;;;;6.65;5.00;;;4.10;99.90;;;;;;5078794;28;20035;-62
2023/12/15 11:45:59;;;;;;;5.95;4.32;;;4.10;99.90;;;;;;5096696;28;20020;-63
2023/12/15 11:48:25;;;;;;;6.93;4.90;;;4.10;99.90;;;;;;5096287;28;20036;-62
2023/12/15 11:50:51;;;;;;;9.50;4.80;;;4.10;99.90;;;;;;5096319;28;20032;-62
2023/12/15 11:53:18;;;;;;;8.75;5.97;;;4.10;99.90;;;;;;5078204;28;20076;-61
2023/12/15 11:55:49;;;;;;;5.97;4.35;;;4.20;99.90;;;;;;5078102;28;20058;-61
2023/12/15 11:58:15;;;;;;;8.02;5.45;;;4.10;99.90;;;;;;5078094;28;20028;-61
2023/12/15 12:00:44;;;;;;;7.15;5.50;;;4.00;99.90;;;;;;5096164;28;20024;-62
2023/12/15 12:03:14;;;;;;;;;;;4.00;99.90;;;;;;5096218;28;20028;-62
2023/12/15 12:05:53;;;;;;;7.03;4.72;;;4.10;99.90;;;;;;5077496;28;19956;-62
2023/12/15 12:08:19;;;;;;;;;;;4.10;99.90;;;;;;5095052;28;20032;-61
2023/12/15 12:10:45;;;;;;;7.10;4.55;;;4.10;99.90;;;;;;5095702;28;19985;-62
2023/12/15 12:13:11;;;;;;;8.95;5.03;;;4.10;99.90;;;;;;5095947;28;20028;-62
2023/12/15 12:15:51;;;;;;;7.18;5.38;;;4.10;99.90;;;;;;5078044;28;20469;-62
2023/12/15 12:18:22;;;;;;;7.78;5.50;;;4.10;99.90;;;;;;5077822;28;20484;-62
2023/12/15 12:20:48;;;;;;;9.15;5.57;;;4.20;99.90;;;;;;5078107;28;20032;-62
2023/12/15 12:23:14;;;;;;;7.45;5.47;;;4.20;99.90;;;;;;5095946;28;20028;-61
2023/12/15 12:25:47;;;;;;;7.80;5.10;;;4.20;99.90;;;;;;5077523;28;20046;-66
2023/12/15 12:28:13;;;;;;;9.25;4.97;;;4.20;99.90;;;;;;5077574;28;20044;-62
2023/12/15 12:30:39;;;;;;;8.93;5.78;;;4.20;99.90;;;;;;5077938;28;20107;-62
2023/12/15 12:33:05;;;;;;;10.50;5.00;;;4.20;99.90;;;;;;5095644;28;20437;-62
2023/12/15 12:35:30;;;;;;;6.38;4.97;;;4.20;99.90;;;;;;5095812;28;20026;-62
2023/12/15 12:37:56;;;;;;;8.32;5.75;;;4.30;99.90;;;;;;5095273;28;20020;-62
2023/12/15 12:40:21;;;;;;;7.03;5.70;;;4.20;99.90;;;;;;5095466;28;20027;-62
2023/12/15 12:42:47;;;;;;;7.50;5.32;;;4.30;99.90;;;;;;5095297;28;20111;-62
2023/12/15 12:45:13;;;;;;;11.27;6.38;;;4.20;99.90;;;;;;5077154;28;20481;-62
2023/12/15 12:47:41;;;;;;;14.15;6.82;;;4.30;99.90;;;;;;5077239;28;20040;-62
2023/12/15 12:50:09;;;;;;;11.35;6.28;;;4.30;99.90;;;;;;5076859;28;20460;-61
2023/12/15 12:52:36;;;;;;;10.05;6.10;;;4.30;99.90;;;;;;5094733;28;20519;-62